• Join FlightAware (Why Join?)
  • Login
  • US Flag 
12:41PM EDT


 

Airport Tracker/Info


-or-


 

Live Flight TrackerFlight Track Log ✈ N833NN ✈ 20-May-2012 ✈ KMIA - KPHL

Flight Track Log - Related Links

Times and Time Zones

All times are in EDT time to prevent confusion due to time zone crossing. See the N833NN flight status page for this flight to view local times or setup timezone preferences in your user account.

Time Position Orientation Groundspeed Altitude Reporting Facility
EDT Latitude Longitude Course Direction KTS MPH feet Rate Location/Type
09:10AM 25.8566 -80.3101 137° Southeast  Level FlightAware Approximate
09:11AM 25.8008 -80.2514 354° North 175 201 1,800  Level Miami Center
09:16AM 26.0425 -80.2792 324° Northwest 291 335 10,100 1,620 Climbing Miami Center
09:17AM 26.1183 -80.3414 325° Northwest 310 357 11,600 2,100 Climbing Miami Center
09:18AM 26.2044 -80.4089 334° Northwest 349 402 14,400 2,520 Climbing Miami Center
09:19AM 26.3114 -80.4675 336° Northwest 379 436 16,700 2,100 Climbing Miami Center
09:20AM 26.4106 -80.5169 337° Northwest 410 472 18,700 1,860 Climbing Miami Center
09:21AM 26.5322 -80.5742 337° Northwest 428 493 20,500 2,040 Climbing Miami Center
09:22AM 26.6356 -80.6239 337° Northwest 443 510 22,800 1,800 Climbing Miami Center
09:23AM 26.7592 -80.6814 340° North 443 510 24,200 1,320 Climbing Miami Center
09:24AM 26.8831 -80.7319 343° North 454 522 25,500 1,500 Climbing Miami Center
09:25AM 27.0072 -80.7758 342° North 459 528 27,300 1,920 Climbing Miami Center
09:26AM 27.1294 -80.8194 342° North 459 528 29,400 1,740 Climbing Miami Center
09:27AM 27.2472 -80.8633 349° North 459 528 30,800 1,500 Climbing Miami Center
09:28AM 27.3694 -80.8908 351° North 449 517 32,400 1,500 Climbing Miami Center
09:29AM 27.4922 -80.9117 349° North 449 517 33,900 1,200 Climbing Miami Center
09:30AM 27.6144 -80.9394 351° North 449 517 34,800 540 Climbing Miami Center
09:31AM 27.7392 -80.9625 349° North 449 517 35,000 60 Climbing Miami Center
09:32AM 27.8572 -80.9878 349° North 444 511 35,000 -60 Level Miami Center
09:33AM 27.9775 -81.0136 350° North 444 511 34,900  Descending Miami Center
09:34AM 28.1000 -81.0392 350° North 444 511 35,000  Climbing Miami Center
09:35AM 28.2225 -81.0625 350° North 444 511 34,900  Descending Miami Center
09:36AM 28.3406 -81.0858 349° North 444 511 35,000  Climbing Miami Center
09:37AM 28.4631 -81.1139 349° North 444 511 35,000  Level Miami Center
09:38AM 28.5831 -81.1400 350° North 444 511 35,000  Level Miami Center
09:38AM 28.6536 -81.1536 349° North 468 539 35,000  Level Jacksonville Center
09:39AM 28.7667 -81.1778 350° North 463 533 35,000 -60 Level Jacksonville Center
09:40AM 28.8922 -81.2042 350° North 458 527 34,900  Descending Jacksonville Center
09:41AM 29.0136 -81.2281 349° North 452 520 35,000  Climbing Jacksonville Center
09:42AM 29.1369 -81.2547 348° North 452 520 34,900  Descending Jacksonville Center
09:43AM 29.2564 -81.2836 350° North 446 513 35,000  Climbing Jacksonville Center
09:44AM 29.3778 -81.3078 350° North 446 513 35,000  Level Jacksonville Center
09:45AM 29.4969 -81.3322 349° North 446 513 35,000  Level Jacksonville Center
09:46AM 29.6183 -81.3589 349° North 446 513 35,000  Level Jacksonville Center
09:47AM 29.7419 -81.3856 349° North 446 513 35,000  Level Jacksonville Center
09:48AM 29.8633 -81.4125 350° North 446 513 35,000  Level Jacksonville Center
09:49AM 29.9847 -81.4369 349° North 446 513 35,000  Level Jacksonville Center
09:50AM 30.1103 -81.4639 351° North 446 513 35,000  Level Jacksonville Center
09:51AM 30.2317 -81.4861 352° North 451 519 35,000  Level Jacksonville Center
09:52AM 30.3572 -81.5058 North 451 519 35,000  Level Jacksonville Center
09:53AM 30.4803 -81.4969 North 445 512 35,000  Level Jacksonville Center
09:54AM 30.6075 -81.4878 North 440 506 35,000  Level Jacksonville Center
09:55AM 30.7325 -81.4764 North 440 506 35,000  Level Jacksonville Center
09:56AM 30.8578 -81.4672 North 440 506 35,000  Level Jacksonville Center
09:57AM 30.9831 -81.4581 North 440 506 35,000  Level Jacksonville Center
09:58AM 31.1081 -81.4464 North 440 506 35,000  Level Jacksonville Center
09:59AM 31.2311 -81.4372 11° North 440 506 35,000  Level Jacksonville Center
10:00AM 31.3500 -81.4111 12° North 440 506 35,000  Level Jacksonville Center
10:01AM 31.4811 -81.3772 18° North 440 506 35,000  Level Jacksonville Center
10:02AM 31.5975 -81.3317 40° Northeast 434 499 35,000  Level Jacksonville Center
10:03AM 31.6819 -81.2469 41° Northeast 429 494 35,000  Level Jacksonville Center
10:04AM 31.7808 -81.1475 39° Northeast 429 494 35,000  Level Jacksonville Center
10:05AM 31.8633 -81.0678 40° Northeast 429 494 35,000  Level Jacksonville Center
10:06AM 31.9661 -80.9653 40° Northeast 429 494 35,000  Level Jacksonville Center
10:07AM 32.0628 -80.8703 39° Northeast 443 510 35,000  Level Jacksonville Center
10:08AM 32.1633 -80.7747 42° Northeast 453 521 35,000 -60 Level Jacksonville Center
10:09AM 32.2475 -80.6844 39° Northeast 453 521 34,900  Descending Jacksonville Center
10:10AM 32.3419 -80.5936 41° Northeast 448 516 35,000  Climbing Jacksonville Center
10:11AM 32.4342 -80.5000 41° Northeast 443 510 35,000 -60 Level Jacksonville Center
10:12AM 32.5264 -80.4064 40° Northeast 443 510 34,900  Descending Jacksonville Center
10:13AM 32.6183 -80.3153 40° Northeast 438 504 35,000  Climbing Jacksonville Center
10:14AM 32.7125 -80.2211 41° Northeast 438 504 35,000  Level Jacksonville Center
10:15AM 32.8044 -80.1269 40° Northeast 438 504 35,000  Level Jacksonville Center
10:16AM 32.8983 -80.0325 40° Northeast 438 504 35,000  Level Jacksonville Center
10:17AM 33.0044 -79.9278 38° Northeast 445 512 35,000  Level Jacksonville Center
10:18AM 33.1022 -79.8353 38° Northeast 445 512 35,000  Level Jacksonville Center
10:19AM 33.1983 -79.7450 39° Northeast 445 512 35,000  Level Jacksonville Center
10:20AM 33.2961 -79.6497 39° Northeast 445 512 35,000 -60 Level Jacksonville Center
10:21AM 33.3917 -79.5567 40° Northeast 445 512 34,900 -60 Descending Jacksonville Center
10:22AM 33.4872 -79.4608 40° Northeast 440 506 34,900  Level Jacksonville Center
10:23AM 33.5806 -79.3675 39° Northeast 440 506 34,900  Level Jacksonville Center
10:24AM 33.6761 -79.2739 37° Northeast 440 506 35,000  Climbing Jacksonville Center
10:25AM 33.7694 -79.1900 41° Northeast 435 501 35,000  Level Jacksonville Center
10:26AM 33.8444 -79.1119 38° Northeast 435 501 35,000  Level Jacksonville Center
10:27AM 33.9500 -79.0122 40° Northeast 435 501 35,000 -60 Level Jacksonville Center
10:29AM 34.1172 -78.8428 39° Northeast 434 499 34,900  Descending Washington Center
10:30AM 34.2117 -78.7486 40° Northeast 434 499 35,000  Climbing Washington Center
10:31AM 34.3036 -78.6567 40° Northeast 434 499 35,000  Level Washington Center
10:32AM 34.4000 -78.5594 40° Northeast 434 499 35,000  Level Washington Center
10:33AM 34.4942 -78.4647 40° Northeast 434 499 35,000  Level Washington Center
10:34AM 34.5881 -78.3694 40° Northeast 434 499 35,000  Level Washington Center
10:35AM 34.6822 -78.2742 40° Northeast 440 506 35,000  Level Washington Center
10:36AM 34.7783 -78.1764 41° Northeast 440 506 35,000  Level Washington Center
10:37AM 34.8722 -78.0756 42° Northeast 440 506 35,000  Level Washington Center
10:38AM 34.9553 -77.9842 39° Northeast 440 506 35,000  Level Washington Center
10:39AM 35.0533 -77.8856 40° Northeast 440 506 35,000  Level Washington Center
10:40AM 35.1489 -77.7892 41° Northeast 435 501 35,000 -240 Level Washington Center
10:41AM 35.2447 -77.6878 40° Northeast 447 514 34,600 -600 Descending Washington Center
10:42AM 35.3425 -77.5883 37° Northeast 447 514 33,800 -780 Descending Washington Center
10:43AM 35.4419 -77.4964 35° Northeast 447 514 33,100 -420 Descending Washington Center
10:44AM 35.5456 -77.4069 36° Northeast 453 521 33,000 -60 Descending Washington Center
10:45AM 35.6469 -77.3175 34° Northeast 453 521 33,000  Level Washington Center
10:46AM 35.7547 -77.2275 35° Northeast 459 528 33,000  Level Washington Center
10:47AM 35.8686 -77.1300 38° Northeast 454 522 33,000  Level Washington Center
10:48AM 35.9636 -77.0369 35° Northeast 449 517 33,000 -180 Level Washington Center
10:49AM 36.0692 -76.9461 35° Northeast 449 517 32,700 -600 Descending Washington Center
10:50AM 36.1722 -76.8553 37° Northeast 454 522 31,900 -780 Descending Washington Center
10:51AM 36.2756 -76.7592 35° Northeast 460 529 31,200 -720 Descending Washington Center
10:52AM 36.3808 -76.6678 36° Northeast 460 529 30,500 -720 Descending Washington Center
10:53AM 36.4858 -76.5736 36° Northeast 460 529 29,800 -720 Descending Washington Center
10:54AM 36.5931 -76.4767 36° Northeast 460 529 29,100 -420 Descending Washington Center
10:55AM 36.7000 -76.3794 37° Northeast 465 535 29,000 -60 Descending Washington Center
10:56AM 36.7967 -76.2869 35° Northeast 470 541 29,000  Level Washington Center
10:57AM 36.9036 -76.1919 21° North 475 547 29,000  Level Washington Center
10:58AM 37.0311 -76.1306 24° Northeast 475 547 29,000  Level Washington Center
10:59AM 37.1941 -76.0400 21° North 476 548 29,000 -60 Level FlightAware ADS-B
11:00AM 37.2736 -76.0017 24° Northeast 475 547 28,900 -780 Descending Washington Center
11:02AM 37.5374 -75.8542 30° Northeast 473 544 26,800 -1,080 Descending FlightAware ADS-B
11:03AM 37.5985 -75.8094 31° Northeast 469 540 26,300 -900 Descending FlightAware ADS-B
11:03AM 37.6545 -75.7676 31° Northeast 466 536 25,900 -960 Descending FlightAware ADS-B
11:04AM 37.7187 -75.7194 31° Northeast 464 534 25,300 -840 Descending FlightAware ADS-B
11:04AM 37.7754 -75.6769 31° Northeast 458 527 25,000 -300 Descending FlightAware ADS-B
11:05AM 37.8312 -75.6347 31° Northeast 458 527 25,000  Level FlightAware ADS-B
11:05AM 37.8881 -75.5917 31° Northeast 456 525 25,000  Level FlightAware ADS-B
11:06AM 37.9433 -75.5499 31° Northeast 456 525 25,000  Level FlightAware ADS-B
11:06AM 38.0058 -75.5025 28° Northeast 455 524 25,000 -360 Level FlightAware ADS-B
11:07AM 38.0689 -75.4600 26° Northeast 449 517 24,600 -1,440 Descending Washington Center
11:08AM 38.1814 -75.3911 28° Northeast 444 511 22,600 -2,040 Descending Washington Center
11:09AM 38.2894 -75.3192 27° Northeast 434 499 20,600 -2,160 Descending Washington Center
11:11AM 38.5464 -75.1539 27° Northeast 390 449 15,400 -2,040 Descending FlightAware ADS-B
11:12AM 38.6013 -75.1185 26° Northeast 386 444 14,800 -540 Descending FlightAware ADS-B
11:13AM 38.6768 -75.0704 26° Northeast 381 438 14,700 -120 Descending FlightAware ADS-B
11:13AM 38.7009 -75.0551 27° Northeast 377 434 14,700  Level FlightAware ADS-B
11:14AM 38.7600 -75.0172 27° Northeast 378 435 14,700  Level FlightAware ADS-B
11:14AM 38.8083 -74.9860 27° Northeast 380 437 14,700  Level FlightAware ADS-B
11:15AM 38.8562 -74.9550 25° Northeast 380 437 14,700  Level FlightAware ADS-B
11:15AM 38.8861 -74.9368 19° North 379 436 14,700  Level FlightAware ADS-B
11:15AM 38.8928 -74.9339 14° North 380 437 14,700 -840 Level FlightAware ADS-B
11:15AM 38.9119 -74.9278 North 382 440 14,500 -1,260 Descending FlightAware ADS-B
11:15AM 38.9332 -74.9250 360° North 384 442 14,200 -1,800 Descending FlightAware ADS-B
11:15AM 38.9418 -74.9250 357° North 384 442 14,000 -1,380 Descending FlightAware ADS-B
11:16AM 38.9970 -74.9292 357° North 389 448 13,400 -1,200 Descending FlightAware ADS-B
11:16AM 39.0509 -74.9330 357° North 384 442 12,800 -1,200 Descending FlightAware ADS-B
11:17AM 39.1042 -74.9368 357° North 371 427 12,200 -1,140 Descending FlightAware ADS-B
11:18AM 39.1543 -74.9404 357° North 346 398 11,700 -1,020 Descending FlightAware ADS-B
11:18AM 39.2009 -74.9437 357° North 328 377 11,200 -900 Descending FlightAware ADS-B
11:19AM 39.2457 -74.9468 357° North 307 353 10,800 -900 Descending FlightAware ADS-B
11:19AM 39.2879 -74.9497 357° North 299 344 10,300 -900 Descending FlightAware ADS-B
11:19AM 39.3208 -74.9520 357° North 294 338 10,000 -780 Descending FlightAware ADS-B
11:20AM 39.3427 -74.9535 357° North 290 334 9,800 -900 Descending FlightAware ADS-B
11:20AM 39.3667 -74.9551 357° North 289 333 9,500 -900 Descending FlightAware ADS-B
11:21AM 39.4171 -74.9587 357° North 286 329 9,000 -780 Descending FlightAware ADS-B
11:21AM 39.4385 -74.9602 357° North 288 331 8,800 -960 Descending FlightAware ADS-B
11:21AM 39.4615 -74.9617 357° North 285 328 8,500 -960 Descending FlightAware ADS-B
11:21AM 39.4813 -74.9631 357° North 283 326 8,300 -840 Descending FlightAware ADS-B
11:22AM 39.5012 -74.9645 356° North 284 327 8,100 -900 Descending FlightAware ADS-B
11:22AM 39.5182 -74.9659 353° North 282 325 7,900 -720 Descending FlightAware ADS-B
11:22AM 39.5243 -74.9669 346° North 281 323 7,900 -780 Level FlightAware ADS-B
11:22AM 39.5287 -74.9683 340° North 282 325 7,800 -900 Descending FlightAware ADS-B
11:22AM 39.5329 -74.9703 336° Northwest 284 327 7,800 -900 Level FlightAware ADS-B
11:22AM 39.5367 -74.9725 329° Northwest 287 330 7,700 -900 Descending FlightAware ADS-B
11:22AM 39.5417 -74.9764 324° Northwest 290 334 7,700  Level FlightAware ADS-B
11:22AM 39.5454 -74.9799 319° Northwest 292 336 7,700  Level FlightAware ADS-B
11:22AM 39.5493 -74.9843 312° West 293 337 7,700  Level FlightAware ADS-B
11:22AM 39.5538 -74.9907 305° West 296 341 7,700  Level FlightAware ADS-B
11:23AM 39.5576 -74.9977 300° West 297 342 7,700  Level FlightAware ADS-B
11:23AM 39.5597 -75.0025 295° West 298 343 7,700  Level FlightAware ADS-B
11:23AM 39.5686 -75.0270 295° West 299 344 7,700  Level FlightAware ADS-B
11:23AM 39.5775 -75.0517 296° West 297 342 7,700  Level FlightAware ADS-B
11:23AM 39.5873 -75.0782 295° West 299 344 7,700  Level FlightAware ADS-B
11:24AM 39.5968 -75.1042 295° West 300 345 7,700 -240 Level FlightAware ADS-B
11:24AM 39.6059 -75.1294 295° West 301 346 7,600 -540 Descending FlightAware ADS-B
11:24AM 39.6171 -75.1599 295° West 301 346 7,400 -720 Descending FlightAware ADS-B
11:24AM 39.6264 -75.1855 295° West 302 348 7,200 -780 Descending FlightAware ADS-B
11:25AM 39.6359 -75.2118 295° West 301 346 7,000 -600 Descending FlightAware ADS-B
11:25AM 39.6451 -75.2371 296° West 302 348 6,900 -600 Descending FlightAware ADS-B
11:25AM 39.6544 -75.2622 295° West 301 346 6,700 -780 Descending FlightAware ADS-B
11:25AM 39.6635 -75.2872 297° West 295 339 6,500 -840 Descending FlightAware ADS-B
11:26AM 39.6677 -75.2978 303° West 291 335 6,400 -480 Descending FlightAware ADS-B
11:26AM 39.6729 -75.3081 311° West 285 328 6,400 -480 Level FlightAware ADS-B
11:26AM 39.6772 -75.3145 317° Northwest 279 321 6,300 -1,500 Descending FlightAware ADS-B
11:26AM 39.6807 -75.3188 324° Northwest 275 316 6,200 -780 Descending FlightAware ADS-B
11:26AM 39.6857 -75.3235 331° Northwest 270 311 6,200 -600 Level FlightAware ADS-B
11:26AM 39.6907 -75.3271 336° Northwest 265 305 6,100 -720 Descending FlightAware ADS-B
11:26AM 39.6952 -75.3297 339° North 259 298 6,100 -660 Level FlightAware ADS-B
11:26AM 39.7114 -75.3377 340° North 243 280 5,900 -1,020 Descending FlightAware ADS-B
11:27AM 39.7265 -75.3450 340° North 226 260 5,600 -1,380 Descending FlightAware ADS-B
11:27AM 39.7412 -75.3521 340° North 215 247 5,200 -1,560 Descending FlightAware ADS-B
11:27AM 39.7550 -75.3587 339° North 205 236 4,800 -1,980 Descending FlightAware ADS-B
11:27AM 39.7695 -75.3659 339° North 207 238 4,200 -2,340 Descending FlightAware ADS-B
11:28AM 39.7827 -75.3725 339° North 206 237 3,600 -2,160 Descending FlightAware ADS-B
11:28AM 39.7963 -75.3792 340° North 201 231 3,100 -2,160 Descending FlightAware ADS-B
11:28AM 39.8097 -75.3854 343° North 194 223 2,500 -2,400 Descending FlightAware ADS-B
11:28AM 39.8158 -75.3878 352° North 190 219 2,200 -2,160 Descending FlightAware ADS-B
11:28AM 39.8213 -75.3888 360° North 185 213 2,000 -2,040 Descending FlightAware ADS-B
11:28AM 39.8239 -75.3888 10° North 183 211 1,900 -2,580 Descending FlightAware ADS-B
11:28AM 39.8270 -75.3881 16° North 181 208 1,700 -2,580 Descending FlightAware ADS-B
11:29AM 39.8294 -75.3872 31° Northeast 177 204 1,600 -1,500 Descending FlightAware ADS-B
11:29AM 39.8329 -75.3845 45° Northeast 170 196 1,500 -600 Descending FlightAware ADS-B
11:29AM 39.8353 -75.3814 55° Northeast 166 191 1,500 -720 Level FlightAware ADS-B
11:29AM 39.8369 -75.3784 61° Northeast 159 183 1,400 -1,200 Descending FlightAware ADS-B
11:29AM 39.8390 -75.3734 64° Northeast 155 178 1,300 -840 Descending FlightAware ADS-B
11:29AM 39.8418 -75.3659 69° East 149 171 1,200 -480 Descending FlightAware ADS-B
11:29AM 39.8427 -75.3629 69° East 148 170 1,200 -900 Level FlightAware ADS-B
11:29AM 39.8435 -75.3602 73° East 148 170 1,100 -900 Descending FlightAware ADS-B
11:29AM 39.8443 -75.3568 75° East 147 169 1,100 -720 Level FlightAware ADS-B
11:29AM 39.8465 -75.3460 75° East 146 168 900 -900 Descending FlightAware ADS-B
11:30AM 39.8491 -75.3333 75° East 145 167 700 -840 Descending FlightAware ADS-B
11:30AM 39.8504 -75.3270 75° East 144 166 600 -780 Descending FlightAware ADS-B
11:30AM 39.8519 -75.3196 75° East 142 163 500 -780 Descending FlightAware ADS-B
11:30AM 39.8544 -75.3070 75° East 138 159 300 -780 Descending FlightAware ADS-B